createdAt,value
2023-03-23T00:00:03.747Z,4.62
2023-03-23T00:02:37.910Z,6.10
2023-03-23T00:05:09.737Z,4.07
2023-03-23T00:07:38.264Z,4.20
2023-03-23T00:10:06.553Z,5.37
2023-03-23T00:12:37.316Z,4.68
2023-03-23T00:15:07.858Z,3.50
2023-03-23T00:17:36.667Z,4.05
2023-03-23T00:20:07.546Z,4.70
2023-03-23T00:22:39.851Z,3.87
2023-03-23T00:25:10.589Z,5.45
2023-03-23T00:27:38.566Z,4.03
2023-03-23T00:30:07.803Z,4.82
2023-03-23T00:32:35.618Z,5.12
2023-03-23T00:35:03.757Z,3.33
2023-03-23T00:37:31.649Z,5.03
2023-03-23T00:39:59.725Z,10.60
2023-03-23T00:42:28.384Z,5.22
2023-03-23T00:45:02.411Z,4.70
2023-03-23T00:47:30.732Z,4.00
2023-03-23T00:49:59.209Z,4.70
2023-03-23T00:52:27.895Z,5.10
2023-03-23T00:54:56.191Z,5.25
2023-03-23T00:57:26.469Z,4.15
2023-03-23T00:59:54.373Z,4.50
2023-03-23T01:02:33.594Z,6.40
2023-03-23T01:05:01.436Z,4.65
2023-03-23T01:07:30.533Z,6.28
2023-03-23T01:09:59.832Z,4.93
2023-03-23T01:12:28.477Z,3.90
2023-03-23T01:14:56.921Z,4.62
2023-03-23T01:17:25.111Z,5.90
2023-03-23T01:19:53.111Z,4.20
2023-03-23T01:22:21.067Z,4.40
2023-03-23T01:24:48.974Z,4.53
2023-03-23T01:27:16.907Z,4.30
2023-03-23T01:29:44.864Z,4.75
2023-03-23T01:32:12.728Z,3.83
2023-03-23T01:34:40.619Z,4.90
2023-03-23T01:37:10.881Z,5.25
2023-03-23T01:39:39.730Z,4.53
2023-03-23T01:42:07.851Z,4.50
2023-03-23T01:44:35.696Z,6.25
2023-03-23T01:47:03.945Z,4.70
2023-03-23T01:49:46.552Z,5.10
2023-03-23T01:52:26.068Z,3.97
2023-03-23T01:54:57.712Z,4.45
2023-03-23T01:57:29.148Z,5.93
2023-03-23T02:00:00.511Z,5.20
2023-03-23T02:02:29.740Z,5.07
2023-03-23T02:05:04.078Z,5.37
2023-03-23T02:07:33.879Z,5.03
2023-03-23T02:10:02.829Z,6.18
2023-03-23T02:12:30.804Z,4.85
2023-03-23T02:14:59.208Z,4.50
2023-03-23T02:17:44.230Z,4.62
2023-03-23T02:20:21.110Z,4.60
2023-03-23T02:23:21.952Z,4.20
2023-03-23T02:25:58.806Z,4.97
2023-03-23T02:28:44.534Z,4.87
2023-03-23T02:31:26.510Z,5.40
2023-03-23T02:34:04.020Z,5.97
2023-03-23T02:36:41.524Z,4.30
2023-03-23T02:39:20.318Z,4.70
2023-03-23T02:41:55.839Z,4.80
2023-03-23T02:44:27.651Z,6.82
2023-03-23T02:46:56.836Z,4.22
2023-03-23T02:49:27.609Z,4.72
2023-03-23T02:51:58.774Z,6.20
2023-03-23T02:54:28.484Z,4.32
2023-03-23T02:56:58.162Z,4.28
2023-03-23T02:59:26.088Z,5.20
2023-03-23T03:02:00.651Z,4.32
2023-03-23T03:04:30.952Z,5.78
2023-03-23T03:07:32.533Z,4.20
2023-03-23T03:10:25.115Z,5.03
2023-03-23T03:12:57.484Z,4.00
2023-03-23T03:15:43.648Z,4.05
2023-03-23T03:18:17.108Z,4.55
2023-03-23T03:20:51.372Z,5.40
2023-03-23T03:23:22.259Z,4.25
2023-03-23T03:25:51.187Z,5.47
2023-03-23T03:28:23.728Z,5.65
2023-03-23T03:30:58.590Z,4.75
2023-03-23T03:33:29.931Z,7.12
2023-03-23T03:36:00.468Z,8.13
2023-03-23T03:38:29.336Z,5.07
2023-03-23T03:40:59.486Z,6.65
2023-03-23T03:43:28.020Z,5.22
2023-03-23T03:45:55.844Z,6.28
2023-03-23T03:48:23.748Z,6.03
2023-03-23T03:50:54.442Z,5.43
2023-03-23T03:53:22.568Z,5.75
2023-03-23T03:56:02.309Z,5.10
2023-03-23T03:58:33.774Z,5.12
2023-03-23T04:01:02.076Z,6.10
2023-03-23T04:03:30.164Z,7.80
2023-03-23T04:05:58.637Z,6.60
2023-03-23T04:08:29.111Z,5.95
2023-03-23T04:10:57.289Z,6.25
2023-03-23T04:13:25.722Z,7.55
2023-03-23T04:16:07.299Z,6.72
2023-03-23T04:18:38.869Z,7.78
2023-03-23T04:21:10.394Z,6.57
2023-03-23T04:23:38.840Z,7.10
2023-03-23T04:26:06.734Z,7.10
2023-03-23T04:28:36.023Z,7.20
2023-03-23T04:31:06.211Z,6.90
2023-03-23T04:33:59.868Z,7.00
2023-03-23T04:36:24.565Z,6.22
2023-03-23T04:39:13.461Z,6.45
2023-03-23T04:41:42.359Z,6.40
2023-03-23T04:44:10.569Z,6.82
2023-03-23T04:46:38.964Z,5.40
2023-03-23T04:49:06.900Z,6.25
2023-03-23T04:51:34.795Z,4.95
2023-03-23T04:54:02.985Z,5.53
2023-03-23T04:56:30.888Z,6.37
2023-03-23T04:58:58.911Z,5.35
2023-03-23T05:01:29.963Z,5.03
2023-03-23T05:03:57.967Z,5.30
2023-03-23T05:06:25.901Z,6.30
2023-03-23T05:08:53.816Z,4.90
2023-03-23T05:11:21.895Z,5.12
2023-03-23T05:13:49.810Z,7.15
2023-03-23T05:16:17.806Z,6.78
2023-03-23T05:18:46.199Z,6.68
2023-03-23T05:21:14.162Z,5.60
2023-03-23T05:23:42.396Z,6.50
2023-03-23T05:26:10.366Z,7.15
2023-03-23T05:28:38.753Z,6.80
2023-03-23T05:31:07.161Z,5.37
2023-03-23T05:33:35.074Z,6.22
2023-03-23T05:36:03.096Z,5.97
2023-03-23T05:38:31.542Z,5.57
2023-03-23T05:41:03.452Z,5.35
2023-03-23T05:43:31.445Z,5.50
2023-03-23T05:45:59.364Z,6.03
2023-03-23T05:48:27.372Z,5.20
2023-03-23T05:50:55.271Z,6.47
2023-03-23T05:53:23.206Z,7.65
2023-03-23T05:55:51.342Z,6.68
2023-03-23T05:58:19.321Z,5.32
2023-03-23T06:00:48.993Z,6.85
2023-03-23T06:03:17.928Z,7.22
2023-03-23T06:05:47.403Z,7.85
2023-03-23T06:08:15.639Z,6.57
2023-03-23T06:10:43.532Z,6.22
2023-03-23T06:13:11.592Z,5.30
2023-03-23T06:15:40.037Z,6.40
2023-03-23T06:18:09.357Z,6.12
2023-03-23T06:20:38.236Z,7.03
2023-03-23T06:23:12.380Z,7.93
2023-03-23T06:25:42.053Z,5.72
2023-03-23T06:28:11.747Z,6.07
2023-03-23T06:30:39.871Z,6.28
2023-03-23T06:33:11.853Z,8.63
2023-03-23T06:35:40.120Z,7.18
2023-03-23T06:38:08.230Z,7.05
2023-03-23T06:40:36.092Z,8.23
2023-03-23T06:43:06.044Z,5.78
2023-03-23T06:45:33.976Z,7.82
2023-03-23T06:48:02.102Z,7.37
2023-03-23T06:50:30.645Z,7.03
2023-03-23T06:52:58.523Z,8.77
2023-03-23T06:55:27.210Z,8.60
2023-03-23T06:57:55.178Z,10.45
2023-03-23T07:00:23.112Z,7.35
2023-03-23T07:02:51.473Z,8.07
2023-03-23T07:05:19.494Z,6.45
2023-03-23T07:07:47.560Z,6.93
2023-03-23T07:10:15.607Z,9.05
2023-03-23T07:12:44.326Z,8.88
2023-03-23T07:15:13.255Z,6.28
2023-03-23T07:17:42.790Z,8.88
2023-03-23T07:20:11.289Z,7.05
2023-03-23T07:22:39.245Z,7.53
2023-03-23T07:25:07.450Z,4.65
2023-03-23T07:27:36.030Z,5.70
2023-03-23T07:30:03.989Z,10.05
2023-03-23T07:32:32.129Z,7.45
2023-03-23T07:35:00.110Z,5.00
2023-03-23T07:37:28.022Z,5.70
2023-03-23T07:39:55.868Z,8.10
2023-03-23T07:42:23.746Z,4.90
2023-03-23T07:44:51.759Z,5.25
2023-03-23T07:47:20.230Z,5.60
2023-03-23T07:50:02.582Z,7.18
2023-03-23T07:52:30.501Z,5.03
2023-03-23T07:54:58.513Z,3.60
2023-03-23T07:57:26.433Z,6.35
2023-03-23T07:59:54.295Z,4.62
2023-03-23T08:02:22.169Z,3.37
2023-03-23T08:04:50.101Z,4.35
2023-03-23T08:07:19.916Z,4.28
2023-03-23T08:09:51.068Z,4.95
2023-03-23T08:12:19.368Z,2.62
2023-03-23T08:14:47.289Z,3.00
2023-03-23T08:17:15.121Z,3.62
2023-03-23T08:19:43.077Z,2.50
2023-03-23T08:22:11.958Z,2.62
2023-03-23T08:24:40.137Z,3.87
2023-03-23T08:27:09.267Z,3.25
2023-03-23T08:29:37.512Z,2.42
2023-03-23T08:32:05.612Z,3.25
2023-03-23T08:34:33.555Z,3.78
2023-03-23T08:37:01.539Z,2.37
2023-03-23T08:39:30.305Z,2.00
2023-03-23T08:41:58.401Z,2.60
2023-03-23T08:44:26.537Z,2.17
2023-03-23T08:46:59.011Z,2.85
2023-03-23T08:49:27.907Z,3.35
2023-03-23T08:51:55.867Z,2.45
2023-03-23T08:54:23.734Z,2.17
2023-03-23T08:56:51.612Z,1.87
2023-03-23T08:59:19.594Z,3.08
2023-03-23T09:01:47.985Z,1.95
2023-03-23T09:04:17.806Z,2.17
2023-03-23T09:06:46.768Z,2.90
2023-03-23T09:09:15.077Z,2.58
2023-03-23T09:11:42.993Z,2.50
2023-03-23T09:14:10.972Z,3.78
2023-03-23T09:16:38.883Z,3.03
2023-03-23T09:19:06.866Z,1.75
2023-03-23T09:21:34.708Z,1.52
2023-03-23T09:24:03.992Z,1.80
2023-03-23T09:26:33.596Z,3.08
2023-03-23T09:29:01.604Z,3.55
2023-03-23T09:31:29.897Z,2.17
2023-03-23T09:34:01.349Z,4.12
2023-03-23T09:36:31.691Z,3.95
2023-03-23T09:39:00.696Z,3.22
2023-03-23T09:41:58.277Z,4.97
2023-03-23T09:44:50.120Z,4.75
2023-03-23T09:47:34.425Z,3.72
2023-03-23T09:50:07.650Z,4.70
2023-03-23T09:52:47.446Z,4.62
2023-03-23T09:55:18.480Z,3.62
2023-03-23T09:58:02.052Z,3.92
2023-03-23T10:00:37.860Z,4.93
2023-03-23T10:03:21.055Z,4.82
2023-03-23T10:05:49.625Z,3.55
2023-03-23T10:08:25.211Z,4.12
2023-03-23T10:11:20.657Z,4.20
2023-03-23T10:14:12.495Z,3.62
2023-03-23T10:16:45.148Z,3.03
2023-03-23T10:19:17.725Z,4.07
2023-03-23T10:22:00.665Z,3.97
2023-03-23T10:24:37.879Z,3.58
2023-03-23T10:27:26.575Z,5.10
2023-03-23T10:30:17.585Z,5.37
2023-03-23T10:32:58.975Z,2.30
2023-03-23T10:35:32.641Z,2.92
2023-03-23T10:38:13.145Z,2.20
2023-03-23T10:40:55.398Z,2.78
2023-03-23T10:43:23.823Z,2.50
2023-03-23T10:46:00.915Z,1.83
2023-03-23T10:48:35.556Z,3.22
2023-03-23T10:51:07.493Z,1.98
2023-03-23T10:53:40.506Z,2.35
2023-03-23T10:56:24.810Z,2.25
2023-03-23T10:58:53.899Z,2.75
2023-03-23T11:01:35.060Z,1.58
2023-03-23T11:04:04.049Z,3.17
2023-03-23T11:06:36.056Z,3.40
2023-03-23T11:09:21.356Z,1.40
2023-03-23T11:12:01.907Z,1.52
2023-03-23T11:14:41.238Z,2.87
2023-03-23T11:17:27.714Z,3.28
2023-03-23T11:19:58.994Z,2.72
2023-03-23T11:22:35.455Z,2.53
2023-03-23T11:25:06.973Z,1.87
2023-03-23T11:27:36.239Z,3.05
2023-03-23T11:30:13.003Z,3.65
2023-03-23T11:32:46.738Z,2.72
2023-03-23T11:35:22.114Z,2.60
2023-03-23T11:37:56.106Z,1.40
2023-03-23T11:40:30.273Z,2.75
2023-03-23T11:43:01.753Z,5.45
2023-03-23T11:45:43.500Z,4.82
2023-03-23T11:48:40.374Z,2.83
2023-03-23T11:51:13.792Z,3.15
2023-03-23T11:54:12.818Z,2.47
2023-03-23T11:56:44.133Z,1.85
2023-03-23T11:59:31.785Z,1.87
2023-03-23T12:02:16.881Z,2.83
2023-03-23T12:05:12.859Z,2.12
2023-03-23T12:07:57.003Z,1.80
2023-03-23T12:10:40.526Z,2.83
2023-03-23T12:13:38.634Z,2.30
2023-03-23T12:16:46.112Z,2.95
2023-03-23T12:19:13.877Z,5.10
2023-03-23T12:21:51.003Z,1.73
2023-03-23T12:24:36.990Z,2.42
2023-03-23T12:27:21.585Z,1.62
2023-03-23T12:30:25.478Z,3.55
2023-03-23T12:33:16.394Z,3.33
2023-03-23T12:36:10.297Z,2.92
2023-03-23T12:39:01.082Z,3.72
2023-03-23T12:41:52.442Z,1.80
2023-03-23T12:44:28.376Z,2.05
2023-03-23T12:47:09.418Z,2.10
2023-03-23T12:49:43.740Z,2.65
2023-03-23T12:52:24.631Z,2.22
2023-03-23T12:55:09.862Z,2.30
2023-03-23T12:58:02.454Z,2.97
2023-03-23T13:00:48.880Z,2.65
2023-03-23T13:03:41.043Z,1.92
2023-03-23T13:06:22.297Z,1.95
2023-03-23T13:09:15.403Z,1.40
2023-03-23T13:11:48.947Z,2.45
2023-03-23T13:14:34.378Z,1.95
2023-03-23T13:17:36.636Z,4.43
2023-03-23T13:20:21.219Z,2.58
2023-03-23T13:23:24.556Z,1.40
2023-03-23T13:26:05.825Z,2.78
2023-03-23T13:28:50.575Z,1.60
2023-03-23T13:31:26.660Z,1.60
2023-03-23T13:34:00.193Z,2.45
2023-03-23T13:37:00.596Z,3.22
2023-03-23T13:39:52.315Z,2.10
2023-03-23T13:42:26.113Z,2.35
2023-03-23T13:44:54.206Z,4.05
2023-03-23T13:47:30.859Z,1.92
2023-03-23T13:50:00.256Z,2.42
2023-03-23T13:52:46.528Z,2.40
2023-03-23T13:55:17.499Z,4.30
2023-03-23T13:58:04.392Z,1.80
2023-03-23T14:00:32.323Z,1.73
2023-03-23T14:03:12.308Z,2.62
2023-03-23T14:05:47.673Z,3.37
2023-03-23T14:08:24.440Z,3.03
2023-03-23T14:10:52.281Z,2.37
2023-03-23T14:13:25.845Z,1.87
2023-03-23T14:16:05.629Z,1.67
2023-03-23T14:18:42.124Z,2.85
2023-03-23T14:21:34.645Z,1.85
2023-03-23T14:24:27.083Z,2.00
2023-03-23T14:27:04.100Z,5.35
2023-03-23T14:29:32.191Z,1.80
2023-03-23T14:32:01.429Z,1.75
2023-03-23T14:34:33.810Z,5.05
2023-03-23T14:37:03.150Z,1.98
2023-03-23T14:39:36.222Z,1.75
2023-03-23T14:42:07.692Z,2.17
2023-03-23T14:44:37.758Z,3.45
2023-03-23T14:47:14.582Z,3.55
2023-03-23T14:49:44.936Z,2.90
2023-03-23T14:52:20.437Z,1.92
2023-03-23T14:54:48.762Z,1.92
2023-03-23T14:57:20.138Z,1.65
2023-03-23T14:59:50.133Z,1.98
2023-03-23T15:02:38.335Z,2.65
2023-03-23T15:05:20.041Z,1.90
2023-03-23T15:07:52.895Z,2.45
2023-03-23T15:10:23.393Z,2.45
2023-03-23T15:12:54.356Z,2.22
2023-03-23T15:15:27.451Z,4.00
2023-03-23T15:17:55.719Z,2.80
2023-03-23T15:20:26.670Z,2.85
2023-03-23T15:22:55.381Z,2.40
2023-03-23T15:25:30.920Z,5.18
2023-03-23T15:28:16.622Z,2.37
2023-03-23T15:30:57.193Z,1.83
2023-03-23T15:33:42.298Z,3.10
2023-03-23T15:36:18.096Z,2.35
2023-03-23T15:38:49.883Z,1.80
2023-03-23T15:41:27.278Z,2.80
2023-03-23T15:44:00.968Z,2.00
2023-03-23T15:46:30.753Z,1.67
2023-03-23T15:48:58.617Z,2.20
2023-03-23T15:51:29.604Z,2.17
2023-03-23T15:54:02.882Z,4.65
2023-03-23T15:56:33.639Z,3.30
2023-03-23T15:59:02.651Z,1.67
2023-03-23T16:01:32.811Z,2.90
2023-03-23T16:04:22.656Z,1.98
2023-03-23T16:06:58.835Z,2.95
2023-03-23T16:09:27.583Z,4.65
2023-03-23T16:11:55.605Z,2.97
2023-03-23T16:14:23.635Z,3.15
2023-03-23T16:16:54.302Z,1.90
2023-03-23T16:19:25.868Z,2.33
2023-03-23T16:21:53.815Z,1.92
2023-03-23T16:24:22.117Z,4.15
2023-03-23T16:26:50.230Z,2.42
2023-03-23T16:29:34.342Z,3.50
2023-03-23T16:32:07.838Z,2.28
2023-03-23T16:34:36.991Z,3.70
2023-03-23T16:37:05.053Z,3.47
2023-03-23T16:39:32.939Z,2.90
2023-03-23T16:42:00.916Z,2.05
2023-03-23T16:44:28.921Z,1.70
2023-03-23T16:46:57.131Z,2.25
2023-03-23T16:49:24.982Z,4.50
2023-03-23T16:51:52.900Z,3.42
2023-03-23T16:54:20.872Z,5.07
2023-03-23T16:56:50.339Z,3.95
2023-03-23T16:59:18.250Z,3.97
2023-03-23T17:01:46.214Z,2.87
2023-03-23T17:04:14.188Z,3.22
2023-03-23T17:06:42.380Z,2.65
2023-03-23T17:09:11.200Z,2.87
2023-03-23T17:11:39.161Z,4.82
2023-03-23T17:14:07.211Z,4.93
2023-03-23T17:16:35.404Z,3.30
2023-03-23T17:19:03.443Z,3.47
2023-03-23T17:21:31.362Z,2.83
2023-03-23T17:23:59.296Z,2.35
2023-03-23T17:26:27.429Z,2.62
2023-03-23T17:28:55.437Z,4.32
2023-03-23T17:31:23.540Z,2.47
2023-03-23T17:33:52.964Z,2.28
2023-03-23T17:36:21.223Z,3.72
2023-03-23T17:38:49.271Z,3.60
2023-03-23T17:41:17.775Z,2.58
2023-03-23T17:43:45.816Z,4.85
2023-03-23T17:46:13.781Z,4.22
2023-03-23T17:48:41.963Z,4.20
2023-03-23T17:51:09.835Z,4.43
2023-03-23T17:53:38.380Z,2.37
2023-03-23T17:56:07.751Z,2.42
2023-03-23T17:58:36.843Z,3.92
2023-03-23T18:01:05.842Z,3.10
2023-03-23T18:03:34.075Z,3.65
2023-03-23T18:06:04.795Z,3.85
2023-03-23T18:08:33.347Z,2.72
2023-03-23T18:11:01.779Z,5.22
2023-03-23T18:13:33.912Z,4.65
2023-03-23T18:16:02.889Z,9.75
2023-03-23T18:18:31.552Z,5.18
2023-03-23T18:21:09.050Z,4.20
2023-03-23T18:23:45.872Z,4.07
2023-03-23T18:26:17.913Z,5.45
2023-03-23T18:28:45.900Z,5.53
2023-03-23T18:31:16.594Z,3.35
2023-03-23T18:33:48.037Z,4.37
2023-03-23T18:36:18.539Z,4.25
2023-03-23T18:38:47.750Z,6.72
2023-03-23T18:41:16.785Z,5.40
2023-03-23T18:43:45.416Z,4.20
2023-03-23T18:46:13.527Z,3.90
2023-03-23T18:48:41.477Z,3.10
2023-03-23T18:51:10.505Z,4.20
2023-03-23T18:53:38.552Z,3.37
2023-03-23T18:56:12.361Z,5.37
2023-03-23T18:58:40.620Z,4.62
2023-03-23T19:01:11.845Z,4.20
2023-03-23T19:03:41.562Z,4.50
2023-03-23T19:06:20.107Z,6.70
2023-03-23T19:08:49.354Z,4.00
2023-03-23T19:11:18.374Z,4.68
2023-03-23T19:13:57.922Z,5.45
2023-03-23T19:16:29.575Z,5.12
2023-03-23T19:18:57.629Z,5.82
2023-03-23T19:21:26.375Z,4.62
2023-03-23T19:23:56.822Z,8.02
2023-03-23T19:26:29.168Z,6.05
2023-03-23T19:31:30.132Z,5.10
2023-03-23T19:33:58.233Z,5.35
2023-03-23T19:36:26.873Z,4.20
2023-03-23T19:39:02.896Z,5.87
2023-03-23T19:41:31.185Z,6.32
2023-03-23T19:43:59.742Z,5.45
2023-03-23T19:46:30.271Z,8.85
2023-03-23T19:48:59.402Z,3.58
2023-03-23T19:51:28.704Z,3.87
2023-03-23T19:53:58.294Z,3.67
2023-03-23T19:56:29.481Z,5.85
2023-03-23T19:58:58.310Z,3.45
2023-03-23T20:01:26.398Z,4.43
2023-03-23T20:03:57.206Z,5.07
2023-03-23T20:06:29.327Z,3.70
2023-03-23T20:09:00.048Z,3.30
2023-03-23T20:11:29.571Z,3.42
2023-03-23T20:13:58.078Z,2.92
2023-03-23T20:16:26.811Z,4.10
2023-03-23T20:18:55.570Z,3.53
2023-03-23T20:21:26.003Z,3.03
2023-03-23T20:23:56.516Z,3.10
2023-03-23T20:26:31.291Z,3.12
2023-03-23T20:28:59.748Z,3.60
2023-03-23T20:31:31.723Z,4.00
2023-03-23T20:34:04.997Z,3.47
2023-03-23T20:36:41.484Z,3.60
2023-03-23T20:39:16.330Z,5.32
2023-03-23T20:41:44.941Z,4.25
2023-03-23T20:44:17.155Z,3.40
2023-03-23T20:46:47.122Z,4.18
2023-03-23T20:49:17.133Z,7.25
2023-03-23T20:51:46.172Z,3.70
2023-03-23T20:54:17.066Z,4.70
2023-03-23T20:56:46.114Z,5.07
2023-03-23T20:59:15.299Z,3.65
2023-03-23T21:01:44.112Z,4.30
2023-03-23T21:04:16.505Z,3.47
2023-03-23T21:06:45.693Z,6.57
2023-03-23T21:09:15.372Z,6.55
2023-03-23T21:11:44.649Z,4.93
2023-03-23T21:14:12.873Z,4.15
2023-03-23T21:16:42.038Z,4.90
2023-03-23T21:19:10.978Z,6.37
2023-03-23T21:21:55.392Z,4.78
2023-03-23T21:24:27.798Z,4.35
2023-03-23T21:26:58.562Z,6.20
2023-03-23T21:29:26.712Z,4.45
2023-03-23T21:32:05.318Z,5.28
2023-03-23T21:34:36.105Z,5.70
2023-03-23T21:37:04.036Z,5.87
2023-03-23T21:39:32.242Z,4.68
2023-03-23T21:42:00.964Z,5.28
2023-03-23T21:44:28.821Z,4.90
2023-03-23T21:46:56.737Z,4.53
2023-03-23T21:49:24.756Z,4.97
2023-03-23T21:51:52.723Z,5.32
2023-03-23T21:54:22.581Z,5.53
2023-03-23T21:56:50.695Z,5.68
2023-03-23T21:59:18.989Z,4.82
2023-03-23T22:01:46.893Z,7.50
2023-03-23T22:04:15.158Z,5.87
2023-03-23T22:06:43.739Z,6.60
2023-03-23T22:09:12.192Z,5.55
2023-03-23T22:11:40.579Z,5.72
2023-03-23T22:14:08.832Z,5.20
2023-03-23T22:16:37.233Z,5.95
2023-03-23T22:19:05.857Z,4.65
2023-03-23T22:21:34.001Z,4.97
2023-03-23T22:24:02.464Z,5.87
2023-03-23T22:26:31.662Z,5.70
2023-03-23T22:29:01.883Z,6.35
2023-03-23T22:31:34.080Z,5.82
2023-03-23T22:34:02.894Z,5.22
2023-03-23T22:36:31.954Z,8.27
2023-03-23T22:39:00.565Z,6.18
2023-03-23T22:41:39.312Z,5.57
2023-03-23T22:44:12.944Z,5.93
2023-03-23T22:46:41.519Z,7.28
2023-03-23T22:49:09.744Z,6.78
2023-03-23T22:51:39.052Z,7.87
2023-03-23T22:54:07.493Z,7.15
2023-03-23T22:56:35.832Z,6.57
2023-03-23T22:59:04.059Z,7.35
2023-03-23T23:01:32.401Z,7.03
2023-03-23T23:04:00.601Z,9.55
2023-03-23T23:06:28.992Z,9.10
2023-03-23T23:08:56.940Z,6.47
2023-03-23T23:11:26.922Z,6.20
2023-03-23T23:13:55.115Z,7.85
2023-03-23T23:16:23.956Z,6.65
2023-03-23T23:18:52.013Z,7.28
2023-03-23T23:21:22.583Z,7.07
2023-03-23T23:23:52.418Z,6.87
2023-03-23T23:26:20.770Z,5.60
2023-03-23T23:28:49.731Z,5.97
2023-03-23T23:31:30.433Z,7.10
2023-03-23T23:34:00.681Z,6.72
2023-03-23T23:36:31.135Z,7.95
2023-03-23T23:39:01.824Z,7.37
2023-03-23T23:41:31.495Z,6.05
2023-03-23T23:44:00.197Z,8.73
2023-03-23T23:46:29.166Z,8.35
2023-03-23T23:48:57.736Z,5.82
2023-03-23T23:51:28.700Z,5.95
2023-03-23T23:53:59.823Z,5.40
2023-03-23T23:56:28.100Z,5.87
2023-03-23T23:58:56.232Z,7.07
